createdAt,value
2023-11-07T00:01:58.067Z,29.23
2023-11-07T00:06:59.898Z,30.07
2023-11-07T00:12:04.197Z,32.60
2023-11-07T00:17:08.348Z,32.40
2023-11-07T00:22:10.148Z,31.17
2023-11-07T00:27:15.685Z,24.53
2023-11-07T00:32:20.021Z,26.13
2023-11-07T00:37:24.421Z,28.40
2023-11-07T00:42:26.199Z,23.73
2023-11-07T00:47:28.320Z,25.70
2023-11-07T00:52:32.634Z,20.73
2023-11-07T00:57:34.441Z,26.50
2023-11-07T01:02:38.710Z,23.87
2023-11-07T01:07:41.101Z,36.20
2023-11-07T01:12:45.283Z,20.60
2023-11-07T01:17:47.234Z,27.27
2023-11-07T01:22:51.161Z,22.27
2023-11-07T01:27:56.318Z,18.47
2023-11-07T01:32:58.830Z,22.83
2023-11-07T01:38:00.765Z,22.37
2023-11-07T01:43:17.461Z,25.80
2023-11-07T01:48:23.878Z,18.20
2023-11-07T01:53:26.561Z,20.70
2023-11-07T01:58:28.966Z,21.23
2023-11-07T02:03:33.896Z,19.87
2023-11-07T02:08:38.197Z,23.30
2023-11-07T02:13:40.320Z,22.43
2023-11-07T02:18:42.238Z,25.37
2023-11-07T02:23:46.495Z,21.40
2023-11-07T02:28:51.626Z,23.30
2023-11-07T02:33:54.496Z,13.50
2023-11-07T02:38:56.635Z,26.53
2023-11-07T02:43:58.739Z,26.80
2023-11-07T02:49:00.717Z,23.17
2023-11-07T02:54:02.938Z,28.67
2023-11-07T02:59:07.242Z,15.97
2023-11-07T03:04:09.163Z,28.90
2023-11-07T03:09:11.443Z,26.33
2023-11-07T03:14:15.700Z,24.33
2023-11-07T03:19:19.905Z,34.80
2023-11-07T03:24:21.795Z,34.57
2023-11-07T03:29:25.931Z,29.03
2023-11-07T03:34:30.114Z,28.60
2023-11-07T03:39:32.567Z,35.47
2023-11-07T03:44:36.180Z,34.97
2023-11-07T03:49:38.065Z,34.37
2023-11-07T03:54:39.845Z,32.90
2023-11-07T03:59:46.383Z,34.53
2023-11-07T04:04:48.325Z,28.23
2023-11-07T04:09:50.279Z,32.30
2023-11-07T04:14:55.840Z,24.10
2023-11-07T04:20:05.431Z,32.53
2023-11-07T04:25:10.925Z,31.00
2023-11-07T04:30:18.730Z,34.03
2023-11-07T04:35:22.962Z,27.17
2023-11-07T04:40:27.682Z,30.33
2023-11-07T04:45:29.487Z,30.13
2023-11-07T04:50:31.319Z,25.53
2023-11-07T04:55:33.266Z,28.23
2023-11-07T05:00:50.553Z,32.00
2023-11-07T05:05:52.580Z,32.03
2023-11-07T05:10:56.135Z,27.20
2023-11-07T05:15:57.987Z,37.83
2023-11-07T05:21:00.942Z,24.83
2023-11-07T05:26:04.382Z,28.17
2023-11-07T05:31:14.438Z,27.20
2023-11-07T05:36:19.128Z,25.77
2023-11-07T05:41:25.328Z,25.67
2023-11-07T05:46:29.515Z,24.77
2023-11-07T05:51:33.994Z,33.97
2023-11-07T05:56:37.140Z,28.83
2023-11-07T06:01:45.330Z,29.73
2023-11-07T06:06:47.208Z,24.43
2023-11-07T06:11:49.103Z,26.07
2023-11-07T06:16:56.661Z,32.20
2023-11-07T06:22:00.614Z,27.70
2023-11-07T06:27:02.427Z,26.10
2023-11-07T06:32:06.761Z,24.30
2023-11-07T06:37:14.002Z,23.77
2023-11-07T06:42:18.922Z,23.70
2023-11-07T06:47:22.752Z,26.37
2023-11-07T06:52:27.190Z,26.77
2023-11-07T06:57:36.098Z,24.57
2023-11-07T07:02:38.949Z,24.42
2023-11-07T07:07:44.105Z,22.65
2023-11-07T07:12:48.271Z,22.77
2023-11-07T07:17:50.278Z,19.77
2023-11-07T07:22:54.830Z,17.53
2023-11-07T07:28:22.294Z,20.27
2023-11-07T07:33:25.641Z,19.57
2023-11-07T07:38:31.909Z,20.40
2023-11-07T07:43:35.935Z,24.77
2023-11-07T07:48:37.854Z,23.53
2023-11-07T07:53:40.184Z,22.30
2023-11-07T07:58:54.052Z,23.03
2023-11-07T08:03:56.342Z,19.83
2023-11-07T08:09:00.644Z,19.00
2023-11-07T08:14:05.569Z,20.10
2023-11-07T08:19:07.587Z,13.37
2023-11-07T08:24:09.667Z,20.63
2023-11-07T08:29:12.499Z,14.70
2023-11-07T08:34:17.594Z,16.93
2023-11-07T08:39:28.781Z,20.50
2023-11-07T08:44:32.884Z,19.30
2023-11-07T08:49:35.651Z,16.60
2023-11-07T08:54:40.616Z,16.37
2023-11-07T08:59:47.136Z,20.20
2023-11-07T09:04:54.851Z,13.93
2023-11-07T09:10:03.481Z,14.17
2023-11-07T09:15:08.350Z,14.03
2023-11-07T09:20:20.005Z,15.20
2023-11-07T09:25:22.471Z,15.77
2023-11-07T09:30:26.271Z,9.63
2023-11-07T09:35:34.356Z,14.93
2023-11-07T09:41:06.600Z,15.07
2023-11-07T09:46:11.144Z,12.90
2023-11-07T09:51:16.153Z,13.17
2023-11-07T09:56:23.468Z,13.23
2023-11-07T10:01:32.493Z,12.30
2023-11-07T10:06:34.601Z,8.40
2023-11-07T10:11:54.825Z,11.80
2023-11-07T10:16:58.452Z,12.97
2023-11-07T10:22:05.670Z,13.90
2023-11-07T10:27:11.781Z,10.47
2023-11-07T10:32:15.979Z,14.43
2023-11-07T10:37:19.304Z,12.23
2023-11-07T10:42:21.630Z,9.95
2023-11-07T10:47:24.196Z,11.95
2023-11-07T10:52:26.618Z,9.80
2023-11-07T10:57:30.162Z,10.55
2023-11-07T11:02:35.303Z,9.83
2023-11-07T11:07:38.192Z,8.32
2023-11-07T11:18:17.188Z,9.63
2023-11-07T11:24:00.350Z,10.70
2023-11-07T11:29:28.583Z,9.68
2023-11-07T11:34:31.970Z,8.98
2023-11-07T11:39:37.753Z,9.80
2023-11-07T11:44:42.510Z,7.45
2023-11-07T11:50:14.527Z,8.63
2023-11-07T11:55:58.717Z,8.95
2023-11-07T12:01:05.067Z,8.23
2023-11-07T12:06:08.316Z,6.93
2023-11-07T12:11:11.733Z,5.82
2023-11-07T12:16:23.380Z,10.07
2023-11-07T12:21:57.146Z,7.32
2023-11-07T12:27:01.294Z,8.35
2023-11-07T12:32:07.943Z,10.45
2023-11-07T12:37:11.442Z,8.85
2023-11-07T12:42:15.885Z,9.38
2023-11-07T12:47:17.931Z,7.43
2023-11-07T12:52:19.928Z,7.35
2023-11-07T12:57:35.286Z,9.43
2023-11-07T13:02:43.535Z,8.88
2023-11-07T13:07:45.465Z,8.02
2023-11-07T13:12:51.812Z,9.05
2023-11-07T13:18:01.692Z,10.77
2023-11-07T13:23:07.687Z,7.82
2023-11-07T13:28:12.608Z,10.93
2023-11-07T13:33:16.148Z,9.18
2023-11-07T13:38:18.344Z,9.23
2023-11-07T13:43:24.451Z,9.95
2023-11-07T13:48:39.179Z,9.48
2023-11-07T13:53:47.775Z,7.43
2023-11-07T13:58:53.896Z,9.23
2023-11-07T14:03:57.177Z,10.48
2023-11-07T14:08:59.337Z,8.23
2023-11-07T14:14:27.809Z,10.80
2023-11-07T14:19:53.157Z,9.50
2023-11-07T14:24:58.986Z,9.40
2023-11-07T14:30:27.676Z,7.78
2023-11-07T14:35:39.944Z,9.73
2023-11-07T14:40:52.218Z,8.15
2023-11-07T14:45:54.289Z,7.15
2023-11-07T14:51:02.319Z,10.43
2023-11-07T14:56:06.980Z,9.20
2023-11-07T15:01:10.823Z,5.60
2023-11-07T15:06:13.404Z,8.38
2023-11-07T15:11:15.576Z,7.65
2023-11-07T15:16:18.859Z,9.00
2023-11-07T15:21:38.944Z,5.25
2023-11-07T15:26:42.102Z,7.17
2023-11-07T15:31:45.959Z,5.45
2023-11-07T15:36:48.906Z,10.97
2023-11-07T15:41:53.228Z,7.60
2023-11-07T15:47:00.400Z,13.85
2023-11-07T15:52:07.659Z,10.77
2023-11-07T15:57:14.461Z,8.27
2023-11-07T16:02:21.022Z,8.53
2023-11-07T16:07:23.057Z,7.73
2023-11-07T16:12:25.405Z,6.03
2023-11-07T16:17:27.450Z,10.03
2023-11-07T16:22:30.392Z,7.10
2023-11-07T16:27:58.728Z,9.60
2023-11-07T16:33:16.056Z,8.43
2023-11-07T16:38:29.080Z,11.97
2023-11-07T16:43:36.251Z,15.37
2023-11-07T16:48:39.369Z,13.50
2023-11-07T16:53:42.334Z,13.03
2023-11-07T16:58:48.606Z,16.30
2023-11-07T17:03:54.546Z,12.43
2023-11-07T17:08:56.628Z,14.93
2023-11-07T17:14:00.667Z,14.53
2023-11-07T17:19:03.934Z,12.53
2023-11-07T17:24:13.428Z,10.07
2023-11-07T17:29:16.530Z,14.20
2023-11-07T17:34:27.523Z,12.37
2023-11-07T17:39:34.993Z,14.97
2023-11-07T17:44:39.193Z,22.23
2023-11-07T17:49:41.041Z,25.63
2023-11-07T17:54:42.893Z,14.57
2023-11-07T17:59:53.306Z,27.30
2023-11-07T18:04:55.926Z,16.90
2023-11-07T18:09:58.278Z,18.13
2023-11-07T18:15:25.629Z,18.03
2023-11-07T18:20:33.058Z,26.57
2023-11-07T18:25:43.334Z,15.20
2023-11-07T18:30:56.026Z,13.97
2023-11-07T18:35:58.641Z,16.10
2023-11-07T18:41:01.752Z,16.67
2023-11-07T18:46:07.038Z,15.83
2023-11-07T18:51:12.989Z,20.07
2023-11-07T18:56:23.835Z,13.77
2023-11-07T19:01:25.896Z,10.00
2023-11-07T19:06:31.171Z,17.57
2023-11-07T19:11:33.434Z,16.50
2023-11-07T19:16:40.122Z,12.93
2023-11-07T19:21:43.971Z,13.23
2023-11-07T19:26:48.926Z,15.30
2023-11-07T19:32:00.397Z,13.43
2023-11-07T19:37:02.436Z,16.97
2023-11-07T19:42:05.179Z,12.63
2023-11-07T19:47:09.418Z,15.40
2023-11-07T19:52:14.499Z,13.37
2023-11-07T19:57:20.317Z,14.23
2023-11-07T20:02:23.881Z,16.67
2023-11-07T20:07:28.143Z,13.63
2023-11-07T20:12:37.267Z,12.83
2023-11-07T20:17:43.767Z,14.23
2023-11-07T20:22:49.001Z,13.17
2023-11-07T20:27:50.871Z,21.90
2023-11-07T20:32:56.020Z,13.10
2023-11-07T20:38:08.898Z,14.17
2023-11-07T20:43:20.138Z,12.63
2023-11-07T20:48:27.647Z,13.87
2023-11-07T20:53:36.691Z,16.43
2023-11-07T20:58:42.976Z,20.63
2023-11-07T21:03:45.256Z,26.23
2023-11-07T21:08:54.766Z,23.17
2023-11-07T21:14:01.116Z,21.08
2023-11-07T21:19:04.725Z,20.33
2023-11-07T21:24:09.285Z,21.90
2023-11-07T21:29:11.352Z,23.07
2023-11-07T21:34:20.073Z,21.20
2023-11-07T21:39:24.496Z,19.87
2023-11-07T21:44:29.619Z,17.77
2023-11-07T21:49:31.593Z,18.93
2023-11-07T21:54:33.481Z,22.50
2023-11-07T21:59:35.475Z,18.27
2023-11-07T22:04:37.459Z,19.77
2023-11-07T22:09:40.494Z,19.60
2023-11-07T22:14:45.562Z,17.77
2023-11-07T22:19:47.409Z,16.10
2023-11-07T22:24:52.255Z,14.20
2023-11-07T22:30:01.393Z,17.53
2023-11-07T22:35:04.165Z,12.70
2023-11-07T22:40:10.711Z,7.10
2023-11-07T22:45:17.010Z,18.20
2023-11-07T22:50:21.751Z,17.63
2023-11-07T22:55:33.972Z,15.73
2023-11-07T23:00:41.933Z,16.83
2023-11-07T23:05:46.896Z,16.73
2023-11-07T23:10:51.354Z,19.43
2023-11-07T23:15:53.943Z,33.33
2023-11-07T23:20:58.040Z,28.10
2023-11-07T23:25:59.916Z,30.67
2023-11-07T23:31:03.777Z,27.87
2023-11-07T23:36:10.427Z,31.73
2023-11-07T23:41:13.127Z,23.00
2023-11-07T23:46:34.433Z,23.43
2023-11-07T23:51:36.686Z,24.90
2023-11-07T23:56:39.326Z,23.20
